Terminal Aerodrome Forecast
Issued by NWS

Home | Current Version | Previous Version | Text Only | Print | Product List | Glossary On
Versions: 1 2 3 4 5 6 7 8 9 10 11 12 13 14 15 16 17 18 19 20 21 22
000
FTUS41 KOKX 300556
TAFSWF
TAF
KSWF 300556Z 3006/3112 VRB02KT P6SM SCT250
     FM300900 VRB03KT 5SM BR FEW020 SCT250
     FM301200 23005KT P6SM SCT035
     FM301500 23010KT P6SM SCT035 BKN050 PROB30 3018/3022 3SM TSRA
      BKN030CB
     FM302300 26005KT P6SM SCT040 BKN080
     FM310300 VRB03KT 4SM BR SCT080
      AMD NOT SKED=

USA.gov is the U.S. government's official web portal to all federal, state and local government web resources and services.